createdAt,value
2022-08-01T00:01:14.797Z,16.66
2022-08-01T00:03:42.178Z,16.64
2022-08-01T00:06:09.463Z,16.64
2022-08-01T00:08:36.582Z,16.63
2022-08-01T00:11:03.734Z,16.62
2022-08-01T00:13:31.374Z,16.60
2022-08-01T00:15:58.471Z,16.59
2022-08-01T00:18:25.574Z,16.56
2022-08-01T00:20:52.856Z,16.53
2022-08-01T00:23:19.973Z,16.49
2022-08-01T00:25:47.023Z,16.49
2022-08-01T00:28:14.634Z,16.48
2022-08-01T00:30:41.664Z,16.49
2022-08-01T00:33:08.871Z,16.48
2022-08-01T00:35:36.355Z,16.47
2022-08-01T00:38:03.759Z,16.46
2022-08-01T00:40:30.802Z,16.44
2022-08-01T00:42:58.507Z,16.41
2022-08-01T00:45:25.586Z,16.39
2022-08-01T00:47:55.288Z,16.37
2022-08-01T00:50:24.866Z,16.34
2022-08-01T00:52:52.869Z,16.32
2022-08-01T00:55:21.063Z,16.31
2022-08-01T00:58:05.008Z,16.30
2022-08-01T01:00:52.817Z,16.28
2022-08-01T01:03:43.309Z,16.25
2022-08-01T01:07:10.706Z,16.23
2022-08-01T01:10:01.352Z,16.23
2022-08-01T01:12:55.745Z,16.19
2022-08-01T01:15:42.525Z,16.19
2022-08-01T01:18:15.483Z,16.18
2022-08-01T01:20:50.585Z,16.16
2022-08-01T01:23:46.850Z,16.15
2022-08-01T01:27:08.425Z,16.13
2022-08-01T01:29:58.998Z,16.12
2022-08-01T01:32:42.769Z,16.11
2022-08-01T01:35:25.168Z,16.09
2022-08-01T01:38:02.650Z,16.09
2022-08-01T01:40:32.133Z,16.07
2022-08-01T01:43:00.838Z,16.07
2022-08-01T01:45:30.419Z,16.05
2022-08-01T01:47:59.672Z,16.02
2022-08-01T01:50:29.550Z,16.01
2022-08-01T01:52:59.049Z,16.00
2022-08-01T01:55:27.829Z,15.98
2022-08-01T01:57:57.746Z,15.96
2022-08-01T02:00:26.621Z,15.94
2022-08-01T02:02:57.811Z,15.91
2022-08-01T02:05:28.974Z,15.88
2022-08-01T02:12:39.951Z,15.81
2022-08-01T02:15:10.322Z,15.79
2022-08-01T02:17:49.728Z,15.75
2022-08-01T02:20:18.646Z,15.73
2022-08-01T02:22:55.985Z,15.70
2022-08-01T02:26:11.177Z,15.66
2022-08-01T02:28:38.988Z,15.63
2022-08-01T02:31:15.290Z,15.60
2022-08-01T02:33:49.625Z,15.58
2022-08-01T02:36:32.468Z,15.56
2022-08-01T02:39:07.539Z,15.54
2022-08-01T02:41:43.283Z,15.51
2022-08-01T02:44:21.095Z,15.49
2022-08-01T02:46:58.675Z,15.46
2022-08-01T02:49:40.204Z,15.43
2022-08-01T02:52:16.595Z,15.41
2022-08-01T02:54:48.659Z,15.38
2022-08-01T02:57:19.558Z,15.35
2022-08-01T02:59:50.741Z,15.34
2022-08-01T03:02:27.604Z,15.30
2022-08-01T03:04:58.397Z,15.27
2022-08-01T03:07:34.264Z,15.26
2022-08-01T03:19:47.159Z,15.16
2022-08-01T03:26:48.876Z,15.11
2022-08-01T03:29:26.510Z,15.10
2022-08-01T03:31:55.450Z,15.07
2022-08-01T03:43:51.956Z,15.00
2022-08-01T03:46:30.045Z,15.00
2022-08-01T03:49:07.382Z,14.98
2022-08-01T03:51:37.002Z,14.99
2022-08-01T03:54:07.614Z,14.99
2022-08-01T03:56:37.520Z,14.96
2022-08-01T03:59:06.799Z,14.96
2022-08-01T04:01:35.487Z,14.95
2022-08-01T04:04:06.165Z,14.98
2022-08-01T04:06:33.741Z,14.98
2022-08-01T04:09:01.865Z,14.99
2022-08-01T04:11:29.301Z,15.00
2022-08-01T04:13:57.781Z,15.03
2022-08-01T04:16:25.694Z,15.04
2022-08-01T04:18:53.169Z,15.08
2022-08-01T04:21:30.036Z,15.10
2022-08-01T04:24:05.898Z,15.11
2022-08-01T04:26:38.576Z,15.11
2022-08-01T04:29:09.126Z,15.10
2022-08-01T04:31:46.218Z,15.12
2022-08-01T04:34:21.174Z,15.11
2022-08-01T04:36:51.086Z,15.11
2022-08-01T04:39:20.867Z,15.14
2022-08-01T04:41:50.338Z,15.16
2022-08-01T04:44:17.583Z,15.21
2022-08-01T04:46:46.570Z,15.24
2022-08-01T04:49:17.638Z,15.33
2022-08-01T04:51:58.590Z,15.43
2022-08-01T04:54:31.152Z,15.54
2022-08-01T04:57:01.331Z,15.65
2022-08-01T04:59:41.452Z,15.77
2022-08-01T05:02:14.832Z,15.94
2022-08-01T05:04:44.811Z,16.07
2022-08-01T05:07:14.035Z,16.24
2022-08-01T05:09:43.070Z,16.37
2022-08-01T05:12:11.890Z,16.50
2022-08-01T05:14:39.960Z,16.62
2022-08-01T05:17:08.992Z,16.82
2022-08-01T05:19:39.245Z,17.01
2022-08-01T05:22:09.613Z,17.22
2022-08-01T05:24:40.276Z,17.43
2022-08-01T05:27:11.656Z,17.64
2022-08-01T05:29:44.568Z,17.75
2022-08-01T05:32:12.607Z,17.94
2022-08-01T05:34:39.584Z,18.10
2022-08-01T05:37:06.798Z,18.19
2022-08-01T05:39:34.215Z,18.25
2022-08-01T05:42:03.811Z,18.47
2022-08-01T05:44:31.178Z,18.70
2022-08-01T05:46:58.602Z,18.93
2022-08-01T05:49:26.074Z,19.20
2022-08-01T05:51:53.615Z,19.45
2022-08-01T05:54:21.117Z,19.74
2022-08-01T05:56:48.097Z,19.99
2022-08-01T05:59:15.377Z,20.24
2022-08-01T06:01:43.185Z,20.44
2022-08-01T06:04:12.469Z,20.60
2022-08-01T06:06:39.485Z,20.78
2022-08-01T06:09:06.970Z,21.02
2022-08-01T06:11:33.963Z,21.25
2022-08-01T06:14:01.077Z,21.45
2022-08-01T06:16:28.559Z,21.52
2022-08-01T06:18:56.971Z,21.59
2022-08-01T06:21:24.440Z,21.85
2022-08-01T06:23:51.869Z,21.89
2022-08-01T06:26:20.540Z,21.71
2022-08-01T06:28:48.135Z,21.80
2022-08-01T06:31:16.624Z,22.06
2022-08-01T06:33:43.685Z,22.40
2022-08-01T06:36:10.755Z,22.74
2022-08-01T06:38:38.933Z,23.12
2022-08-01T07:04:17.245Z,23.93
2022-08-01T07:06:44.956Z,23.97
2022-08-01T07:09:14.331Z,23.98
2022-08-01T07:11:42.424Z,23.87
2022-08-01T07:14:09.954Z,24.05
2022-08-01T07:16:37.222Z,24.35
2022-08-01T07:19:04.606Z,24.73
2022-08-01T07:47:37.387Z,26.81
2022-08-01T07:50:10.976Z,26.92
2022-08-01T07:52:38.437Z,27.16
2022-08-01T07:55:06.765Z,27.21
2022-08-01T07:57:34.264Z,27.02
2022-08-01T08:21:19.115Z,28.34
2022-08-01T08:38:19.922Z,28.51
2022-08-01T08:40:58.251Z,28.88
2022-08-01T08:43:27.121Z,29.27
2022-08-01T08:45:59.083Z,29.43
2022-08-01T08:48:32.194Z,29.88
2022-08-01T08:51:03.401Z,30.11
2022-08-01T08:53:34.927Z,30.10
2022-08-01T08:56:07.515Z,30.21
2022-08-01T08:58:38.707Z,30.30
2022-08-01T09:01:09.855Z,30.42
2022-08-01T09:03:37.665Z,30.68
2022-08-01T09:06:05.873Z,30.91
2022-08-01T09:08:34.590Z,31.11
2022-08-01T09:11:04.807Z,31.22
2022-08-01T09:13:32.062Z,31.35
2022-08-01T09:16:02.372Z,31.60
2022-08-01T09:18:45.783Z,31.84
2022-08-01T09:21:25.069Z,32.09
2022-08-01T09:23:55.264Z,32.08
2022-08-01T09:26:35.730Z,32.26
2022-08-01T09:29:10.351Z,32.41
2022-08-01T09:31:47.112Z,32.63
2022-08-01T09:34:28.833Z,32.65
2022-08-01T09:37:05.758Z,32.78
2022-08-01T09:39:41.095Z,32.77
2022-08-01T09:42:28.694Z,32.75
2022-08-01T09:44:57.354Z,33.03
2022-08-01T09:47:41.830Z,33.11
2022-08-01T09:50:12.027Z,33.21
2022-08-01T09:52:41.100Z,33.40
2022-08-01T09:55:09.363Z,33.58
2022-08-01T09:57:36.581Z,33.78
2022-08-01T10:00:35.697Z,34.04
2022-08-01T10:03:28.221Z,34.33
2022-08-01T10:05:55.818Z,34.44
2022-08-01T10:08:26.401Z,34.62
2022-08-01T10:11:13.023Z,34.97
2022-08-01T10:13:45.290Z,34.98
2022-08-01T10:16:15.780Z,34.93
2022-08-01T10:18:46.319Z,35.03
2022-08-01T10:21:15.886Z,35.20
2022-08-01T10:24:07.941Z,35.33
2022-08-01T10:26:39.965Z,35.43
2022-08-01T10:29:45.172Z,35.50
2022-08-01T10:31:56.075Z,35.74
2022-08-01T10:34:33.346Z,35.71
2022-08-01T10:37:02.494Z,35.66
2022-08-01T10:39:36.390Z,35.69
2022-08-01T10:42:10.699Z,35.61
2022-08-01T10:44:40.286Z,35.88
2022-08-01T10:47:19.470Z,35.92
2022-08-01T10:50:15.033Z,35.48
2022-08-01T10:53:15.954Z,35.49
2022-08-01T10:56:16.641Z,35.48
2022-08-01T10:58:48.807Z,35.62
2022-08-01T11:01:26.212Z,35.80
2022-08-01T11:04:41.646Z,35.62
2022-08-01T11:07:26.013Z,35.47
2022-08-01T11:10:24.255Z,35.55
2022-08-01T11:12:51.974Z,35.51
2022-08-01T11:15:31.871Z,35.69
2022-08-01T11:18:04.562Z,35.37
2022-08-01T11:20:41.666Z,35.19
2022-08-01T11:23:11.874Z,35.15
2022-08-01T11:26:06.224Z,35.24
2022-08-01T11:28:40.434Z,35.37
2022-08-01T11:31:11.199Z,35.14
2022-08-01T11:33:42.230Z,34.91
2022-08-01T11:36:14.666Z,34.83
2022-08-01T11:39:00.463Z,34.81
2022-08-01T11:41:37.918Z,34.73
2022-08-01T11:44:11.691Z,34.63
2022-08-01T11:47:09.305Z,34.36
2022-08-01T11:49:49.729Z,34.33
2022-08-01T11:52:25.055Z,34.14
2022-08-01T11:55:10.131Z,34.01
2022-08-01T11:57:39.598Z,33.93
2022-08-01T12:00:17.444Z,33.85
2022-08-01T12:02:47.825Z,33.77
2022-08-01T12:05:21.485Z,33.64
2022-08-01T12:07:54.765Z,33.40
2022-08-01T12:10:33.225Z,33.21
2022-08-01T12:13:06.634Z,32.97
2022-08-01T12:15:38.609Z,32.81
2022-08-01T12:18:08.883Z,32.61
2022-08-01T12:20:55.753Z,32.43
2022-08-01T12:23:25.152Z,32.24
2022-08-01T12:25:53.425Z,32.05
2022-08-01T12:28:21.234Z,31.97
2022-08-01T12:30:50.255Z,31.79
2022-08-01T12:33:22.560Z,31.79
2022-08-01T12:35:50.223Z,31.63
2022-08-01T12:38:26.081Z,31.49
2022-08-01T12:40:54.896Z,31.49
2022-08-01T12:43:29.406Z,31.55
2022-08-01T12:46:04.453Z,31.62
2022-08-01T12:48:32.751Z,31.58
2022-08-01T12:51:02.414Z,31.56
2022-08-01T12:53:40.147Z,31.55
2022-08-01T12:56:11.357Z,31.44
2022-08-01T12:58:40.000Z,31.36
2022-08-01T13:01:13.263Z,31.28
2022-08-01T13:03:41.921Z,31.26
2022-08-01T13:06:16.200Z,31.22
2022-08-01T13:08:46.210Z,31.13
2022-08-01T13:11:17.699Z,31.08
2022-08-01T13:13:52.896Z,31.07
2022-08-01T13:16:43.228Z,31.13
2022-08-01T13:19:15.455Z,31.19
2022-08-01T13:21:57.348Z,31.24
2022-08-01T13:24:30.262Z,31.26
2022-08-01T13:27:05.208Z,31.24
2022-08-01T13:29:42.553Z,31.30
2022-08-01T13:32:28.561Z,31.36
2022-08-01T13:35:09.713Z,31.38
2022-08-01T13:37:38.797Z,31.51
2022-08-01T13:40:11.574Z,31.48
2022-08-01T13:42:39.998Z,31.52
2022-08-01T13:45:13.661Z,31.57
2022-08-01T13:48:03.627Z,31.68
2022-08-01T13:50:32.618Z,31.97
2022-08-01T13:53:00.052Z,32.01
2022-08-01T13:55:31.085Z,32.04
2022-08-01T13:58:06.107Z,32.24
2022-08-01T14:00:33.406Z,32.41
2022-08-01T14:03:00.479Z,32.39
2022-08-01T14:05:28.977Z,32.41
2022-08-01T14:07:56.365Z,32.24
2022-08-01T14:10:25.728Z,32.26
2022-08-01T14:12:53.275Z,32.29
2022-08-01T14:15:38.859Z,32.39
2022-08-01T14:18:21.883Z,32.75
2022-08-01T14:20:49.149Z,32.83
2022-08-01T14:23:18.264Z,32.93
2022-08-01T14:26:03.045Z,32.87
2022-08-01T14:28:34.286Z,32.87
2022-08-01T14:31:02.481Z,32.81
2022-08-01T14:33:31.819Z,32.79
2022-08-01T14:36:28.466Z,32.72
2022-08-01T14:38:49.578Z,32.66
2022-08-01T14:41:17.309Z,32.63
2022-08-01T14:43:44.882Z,32.62
2022-08-01T14:46:13.554Z,32.64
2022-08-01T14:48:41.859Z,32.73
2022-08-01T14:51:09.761Z,32.86
2022-08-01T14:53:37.746Z,32.96
2022-08-01T14:56:05.978Z,32.96
2022-08-01T14:58:34.387Z,33.14
2022-08-01T15:01:05.387Z,33.01
2022-08-01T15:03:33.056Z,32.95
2022-08-01T15:06:00.618Z,32.91
2022-08-01T15:08:28.438Z,33.10
2022-08-01T15:10:56.271Z,33.14
2022-08-01T15:13:23.423Z,33.08
2022-08-01T15:15:53.059Z,33.23
2022-08-01T15:18:20.615Z,33.28
2022-08-01T15:20:47.802Z,33.31
2022-08-01T15:23:15.439Z,33.29
2022-08-01T15:25:43.016Z,33.31
2022-08-01T15:28:11.332Z,33.32
2022-08-01T15:30:39.806Z,33.23
2022-08-01T15:33:07.879Z,33.17
2022-08-01T15:35:34.993Z,33.26
2022-08-01T15:38:04.308Z,33.33
2022-08-01T15:40:35.286Z,33.41
2022-08-01T15:43:03.683Z,33.63
2022-08-01T15:45:47.427Z,34.09
2022-08-01T15:48:17.239Z,34.14
2022-08-01T15:50:44.670Z,33.92
2022-08-01T15:53:12.465Z,33.86
2022-08-01T15:55:40.588Z,33.73
2022-08-01T15:58:08.388Z,33.65
2022-08-01T16:00:40.131Z,33.67
2022-08-01T16:03:10.242Z,33.71
2022-08-01T16:05:43.175Z,33.67
2022-08-01T16:08:13.875Z,33.56
2022-08-01T16:10:42.724Z,33.44
2022-08-01T16:13:10.265Z,33.35
2022-08-01T16:15:41.748Z,33.25
2022-08-01T16:18:13.073Z,33.14
2022-08-01T16:20:45.594Z,33.05
2022-08-01T16:23:15.510Z,32.96
2022-08-01T16:25:46.214Z,32.89
2022-08-01T16:28:14.234Z,32.89
2022-08-01T16:30:48.585Z,32.88
2022-08-01T16:33:53.095Z,32.81
2022-08-01T16:36:17.470Z,32.75
2022-08-01T16:38:46.407Z,32.67
2022-08-01T16:41:19.727Z,32.56
2022-08-01T16:43:53.154Z,32.45
2022-08-01T16:46:26.841Z,32.36
2022-08-01T16:48:55.170Z,32.22
2022-08-01T16:51:22.687Z,32.08
2022-08-01T16:53:50.157Z,31.99
2022-08-01T16:56:18.166Z,31.84
2022-08-01T16:58:45.434Z,31.70
2022-08-01T17:02:03.313Z,31.55
2022-08-01T17:04:02.553Z,31.41
2022-08-01T17:06:30.393Z,31.30
2022-08-01T17:08:58.697Z,31.19
2022-08-01T17:11:26.567Z,31.01
2022-08-01T17:13:53.752Z,30.69
2022-08-01T17:16:21.230Z,30.54
2022-08-01T17:18:49.174Z,30.44
2022-08-01T17:21:16.782Z,30.33
2022-08-01T17:23:44.683Z,30.24
2022-08-01T17:26:13.038Z,30.18
2022-08-01T17:28:40.390Z,30.06
2022-08-01T17:31:10.380Z,29.94
2022-08-01T17:33:45.665Z,29.90
2022-08-01T17:36:14.463Z,29.85
2022-08-01T17:38:42.077Z,29.78
2022-08-01T17:41:09.477Z,29.72
2022-08-01T17:43:36.615Z,29.62
2022-08-01T17:46:05.911Z,29.47
2022-08-01T17:48:33.111Z,29.34
2022-08-01T17:51:00.329Z,29.21
2022-08-01T17:53:28.905Z,29.09
2022-08-01T17:56:07.886Z,28.99
2022-08-01T17:58:51.069Z,28.92
2022-08-01T18:01:20.702Z,28.86
2022-08-01T18:03:48.889Z,28.79
2022-08-01T18:06:19.084Z,28.74
2022-08-01T18:08:47.969Z,28.65
2022-08-01T18:11:17.329Z,28.56
2022-08-01T18:13:45.422Z,28.45
2022-08-01T18:16:13.374Z,28.36
2022-08-01T18:18:43.988Z,28.28
2022-08-01T18:21:12.485Z,28.21
2022-08-01T18:23:39.681Z,28.12
2022-08-01T18:26:08.739Z,28.05
2022-08-01T18:28:42.005Z,27.91
2022-08-01T18:31:20.356Z,27.80
2022-08-01T18:33:48.647Z,27.71
2022-08-01T18:36:31.855Z,27.61
2022-08-01T18:39:06.362Z,27.52
2022-08-01T18:41:39.213Z,27.45
2022-08-01T18:44:08.967Z,27.37
2022-08-01T18:46:39.128Z,27.29
2022-08-01T18:49:10.089Z,27.19
2022-08-01T18:51:44.415Z,27.15
2022-08-01T18:54:15.279Z,27.06
2022-08-01T18:56:45.128Z,26.98
2022-08-01T18:59:14.146Z,26.93
2022-08-01T19:01:42.319Z,26.85
2022-08-01T19:04:14.103Z,26.78
2022-08-01T19:06:43.598Z,26.72
2022-08-01T19:09:20.779Z,26.63
2022-08-01T19:11:50.243Z,26.59
2022-08-01T19:14:17.914Z,26.51
2022-08-01T19:16:47.116Z,26.46
2022-08-01T19:19:14.919Z,26.39
2022-08-01T19:21:55.490Z,26.32
2022-08-01T19:24:29.464Z,26.26
2022-08-01T19:27:08.958Z,26.19
2022-08-01T19:32:51.165Z,26.07
2022-08-01T19:35:18.690Z,26.00
2022-08-01T19:38:02.804Z,25.93
2022-08-01T19:40:48.906Z,25.87
2022-08-01T19:43:33.388Z,25.83
2022-08-01T19:46:05.712Z,25.76
2022-08-01T19:48:38.564Z,25.71
2022-08-01T19:51:12.297Z,25.66
2022-08-01T19:53:44.668Z,25.62
2022-08-01T19:56:14.255Z,25.57
2022-08-01T19:58:43.112Z,25.54
2022-08-01T20:01:16.921Z,25.49
2022-08-01T20:03:49.242Z,25.44
2022-08-01T20:06:16.865Z,25.40
2022-08-01T20:08:45.337Z,25.36
2022-08-01T20:11:14.657Z,25.32
2022-08-01T20:13:44.366Z,25.28
2022-08-01T20:16:11.945Z,25.23
2022-08-01T20:18:40.448Z,25.19
2022-08-01T20:21:12.470Z,25.14
2022-08-01T20:23:43.361Z,25.10
2022-08-01T20:26:14.081Z,25.07
2022-08-01T20:28:46.493Z,25.02
2022-08-01T20:31:20.213Z,24.96
2022-08-01T20:33:49.779Z,24.92
2022-08-01T20:36:24.989Z,24.88
2022-08-01T20:38:56.546Z,24.83
2022-08-01T20:41:27.659Z,24.78
2022-08-01T20:43:59.569Z,24.73
2022-08-01T20:46:29.739Z,24.67
2022-08-01T20:48:58.820Z,24.64
2022-08-01T20:51:28.403Z,24.58
2022-08-01T20:53:56.550Z,24.52
2022-08-01T20:56:36.500Z,24.48
2022-08-01T20:59:55.144Z,24.42
2022-08-01T21:02:49.005Z,24.35
2022-08-01T21:05:31.930Z,24.27
2022-08-01T21:08:23.123Z,24.21
2022-08-01T21:10:58.058Z,24.14
2022-08-01T21:13:48.354Z,24.08
2022-08-01T21:24:10.310Z,23.91
2022-08-01T21:26:39.126Z,23.85
2022-08-01T21:29:10.449Z,23.80
2022-08-01T21:31:41.431Z,23.75
2022-08-01T21:34:24.376Z,23.69
2022-08-01T21:36:53.254Z,23.65
2022-08-01T21:39:21.654Z,23.61
2022-08-01T21:41:56.702Z,23.56
2022-08-01T21:44:35.863Z,23.52
2022-08-01T21:47:04.403Z,23.46
2022-08-01T21:49:32.366Z,23.44
2022-08-01T21:52:12.193Z,23.37
2022-08-01T21:55:15.493Z,23.31
2022-08-01T21:58:00.426Z,23.26
2022-08-01T22:00:33.507Z,23.22
2022-08-01T22:06:24.999Z,23.08
2022-08-01T22:08:59.405Z,23.03
2022-08-01T22:11:30.846Z,23.01
2022-08-01T22:14:06.127Z,22.96
2022-08-01T22:16:40.900Z,22.92
2022-08-01T22:19:44.195Z,22.88
2022-08-01T22:22:04.616Z,22.84
2022-08-01T22:24:51.575Z,22.80
2022-08-01T22:28:05.947Z,22.77
2022-08-01T22:30:17.724Z,22.76
2022-08-01T22:33:07.239Z,22.72
2022-08-01T22:35:36.806Z,22.69
2022-08-01T22:38:07.882Z,22.66
2022-08-01T22:40:47.856Z,22.63
2022-08-01T22:43:41.846Z,22.60
2022-08-01T22:46:32.698Z,22.55
2022-08-01T22:49:09.267Z,22.52
2022-08-01T22:52:07.633Z,22.49
2022-08-01T22:54:41.561Z,22.47
2022-08-01T22:57:23.464Z,22.45
2022-08-01T23:00:04.539Z,22.41
2022-08-01T23:02:38.249Z,22.38
2022-08-01T23:05:12.143Z,22.36
2022-08-01T23:07:49.626Z,22.33
2022-08-01T23:10:20.718Z,22.29
2022-08-01T23:12:51.703Z,22.26
2022-08-01T23:15:21.984Z,22.22
2022-08-01T23:17:51.166Z,22.18
2022-08-01T23:20:18.990Z,22.16
2022-08-01T23:22:48.022Z,22.10
2022-08-01T23:25:17.059Z,22.08
2022-08-01T23:27:54.286Z,22.04
2022-08-01T23:30:35.170Z,22.00
2022-08-01T23:33:03.735Z,21.99
2022-08-01T23:35:31.306Z,21.95
2022-08-01T23:38:02.854Z,21.93
2022-08-01T23:40:34.674Z,21.90
2022-08-01T23:43:04.539Z,21.89
2022-08-01T23:46:02.623Z,21.86
2022-08-01T23:48:20.984Z,21.85
2022-08-01T23:50:48.358Z,21.82
2022-08-01T23:53:15.846Z,21.81
2022-08-01T23:55:44.537Z,21.78
2022-08-01T23:58:12.002Z,21.76
